Auxvasse, Missouri
Current Conditions -  °F | °C
As of 3:54 PM on Friday 24 Oct 2014 (Local Time) from KCOU Reporting Station
Few Clouds Few Clouds  
Wind Chill: 72°   Ceiling: Unl
Heat Index: 72°   Visibility: 10mi
Dew Point: 60°   Wind: 12mph
Humidity: 66%   Direction: 180°S
Pressure: 30"   Gusts: NA
Location:  39.02°N, 91.9°W
Report Text: KCOU 242054Z 18010KT 10SM FEW043 22/16 A3000 RMK AO2 SLP153 T02220156 56027
Loading
Personal Weather Stations






























Interactive Weather Map New forecast layout! Learn more

10-Day Weather Forecast

Advertisements
Track Severe Weather on mobile